x

Nantucket Sound (44020) Wave Buoy

11:50pm - Fri 1st Aug 2014 All times are EDT. -4 hours from GMT.

  • Sig Wave height 0.7ft
  • Average Period 4s
  • Wind
    7mph
  • Sea Temp 71°f
  • Air Temp 69°f
  • Sea Pressure 1024.1mb
  • Nantucket Sound
  • Nantucket Sound

More Historic Weather Station data

Upgrade to MSW Pro to gain access to the past 30 days of data for over 8000 Wavebouys and Weather Stations around the globe.

Join Pro

Comparision Forecast

View Surf forecast
   
Fri 08/01 11:50pm 0.7ft  -  4s 7
mph
1024.1mb 71f 69f
10:50pm 0.7ft  -  4s 4
mph
1023.9mb 71f 70f
9:50pm 0.7ft  -  4s 4 7 mph 1023.7mb 71f 71f
8:50pm 0.7ft  -  4s 7 9 mph 1023.4mb 71f 70f
7:50pm 1ft 6s 3s 11
mph
1023.6mb 72f 71f
6:50pm 1ft 2s 3s 11
mph
1023.7mb 73f 71f
5:50pm 1.3ft 3s 3s 11 13 mph 1023.6mb 73f 72f
4:50pm 1.3ft 6s 3s 11 13 mph 1023.5mb 73f 71f
3:50pm 1ft 6s 3s 13 16 mph 1023.5mb 73f 71f
2:50pm 1.3ft 3s 3s 11 13 mph 1023.8mb 73f 71f
1:50pm 1ft 3s 3s 13 16 mph 1024.2mb 73f 72f
12:50pm 1ft 3s 3s 13 16 mph 1024.3mb 73f 72f
11:50am 1ft 3s 3s 11 13 mph 1024.2mb 73f 72f
10:50am 1ft 6s 3s 13 16 mph 1024.2mb 72f 71f
9:50am 1ft 8s 3s 11 13 mph 1023.8mb 71f 71f
8:50am 0.7ft  -  4s 11 13 mph 1023.7mb 71f 71f
7:50am 1ft 8s 4s 2 4 mph 1023.2mb 71f 70f
6:50am 0.7ft  -  4s 4
mph
1022.9mb 72f 71f
5:50am 1ft 8s 4s 7 9 mph 1022.8mb 72f 70f
4:50am 1ft 7s 4s 7 9 mph 1022mb 72f 70f
3:50am 1ft 8s 4s 9 11 mph 1022.2mb 71f 71f
2:50am 1ft 7s 4s 7 9 mph 1021.9mb 71f 70f
1:50am 0.7ft  -  4s 9 11 mph 1022.2mb 72f 71f
12:50am 0.7ft  -  4s 9 11 mph 1022mb 72f 71f
Thu 07/31 11:50pm 0.7ft  -  3s 11
mph
1022.1mb 72f 71f
10:50pm 1ft 8s 3s 13 16 mph 1021.9mb 72f 71f
9:50pm 1ft 5s 3s 11 13 mph 1021.9mb 72f 71f
8:50pm 1ft 8s 3s 13
mph
1021.3mb 71f 70f
7:50pm 1.3ft 6s 3s 13 16 mph 1020.9mb 72f 70f
6:50pm 1.3ft 3s 3s 13 16 mph 1020.7mb 73f 71f
5:50pm 1.3ft 3s 3s 13 16 mph 1020.5mb 73f 71f
4:50pm 1.3ft 3s 3s 13 16 mph 1020.3mb 73f 71f
3:50pm 1.3ft 3s 3s 11 13 mph 1020.4mb 73f 71f
2:50pm 1.3ft 7s 4s 13 16 mph 1020.3mb 73f 71f
1:50pm 1ft 8s 3s 13 16 mph 1020.3mb 73f 71f
12:50pm 1ft 6s 3s 13
mph
1020.4mb 73f 71f
11:50am 0.7ft  -  4s 13
mph
1020.6mb 73f 70f
10:50am 1ft 6s 4s 9 11 mph 1020.5mb 72f 70f
9:50am 1ft 4s 3s 9 11 mph 1020mb 72f 70f
8:50am 1ft 9s 4s 9 11 mph 1020.1mb 71f 69f
7:50am 1ft 8s 4s 9 11 mph 1020mb 71f 69f
6:50am 1ft 10s 4s 9
mph
1019.4mb 71f 69f
5:50am 1ft 9s 4s 9 11 mph 1019.2mb 71f 69f
4:50am 1ft 6s 4s 7 9 mph 1018.8mb 71f 69f
3:50am 1.3ft 8s 4s 9 11 mph 1018.3mb 71f 69f
2:50am 1.3ft 7s 4s 9 11 mph 1017.9mb 71f 69f
1:50am 1ft 8s 4s 9 11 mph 1018mb 71f 69f
12:50am 1ft 8s 4s 11
mph
1018mb 72f 69f
Wed 07/30 11:50pm 0.7ft  -  4s 11 13 mph 1017.8mb 72f 69f
10:50pm 1ft 8s 3s 11 13 mph 1017.8mb 72f 70f
9:50pm 1ft 5s 3s 11
mph
1017.7mb 72f 70f
8:50pm 1.3ft 2s 3s 13
mph
1017.2mb 72f 71f
7:50pm 1.3ft 6s 3s 13 16 mph 1016.7mb 72f 71f
6:50pm 1.3ft 3s 3s 16 18 mph 1016.3mb 73f 71f
5:50pm 1.3ft 3s 3s 13 18 mph 1015.8mb 73f 71f
4:50pm 1ft 3s 4s 16 18 mph 1015.5mb 73f 71f
3:50pm 1ft 8s 4s 11 13 mph 1015.7mb 73f 70f
2:50pm 1.3ft 8s 4s 11 13 mph 1015.6mb 73f 70f
1:50pm 1ft 7s 4s 9 11 mph 1015.7mb 73f 69f
12:50pm 1ft 4s 4s 7 9 mph 1015.9mb 73f 69f
11:50am 0.7ft  -  4s 7
mph
1016.1mb 73f 69f
10:50am 1ft 6s 4s 9
mph
1015.9mb 72f 70f
9:50am 1ft 4s 4s 9
mph
1015.8mb 72f 69f
8:50am 0.7ft  -  4s 9
mph
1015.8mb 71f 69f
7:50am 1ft 9s 4s 4 7 mph 1015.8mb 71f 70f
6:50am 1ft 8s 4s 2
mph
1015.5mb 71f 70f
5:50am 1ft 6s 4s 4
mph
1015mb 71f 70f
4:50am 1ft 8s 4s 7 9 mph 1014.4mb 71f 69f
3:50am 1ft 3s 4s 11
mph
1014mb 71f 69f
2:50am 1.3ft 8s 4s 11 13 mph 1014mb 71f 69f
1:50am 1.3ft 8s 4s 13 16 mph 1014.1mb 71f 69f
12:50am 1ft 7s 3s 13 16 mph 1014.3mb 71f 69f
Tue 07/29 11:50pm 1ft 3s 3s 13 16 mph 1014.2mb 72f 69f
10:50pm 1ft 2s 3s 13 16 mph 1013.7mb 72f 69f
9:50pm 1.3ft 3s 3s 16 18 mph 1013.5mb 72f 69f
8:50pm 1.3ft 3s 3s 16 18 mph 1013.1mb 72f 69f
7:50pm 1.6ft 3s 3s 16 20 mph 1013mb 72f 69f
6:50pm 1.6ft 3s 3s 16 18 mph 1012.6mb 72f 69f
5:50pm 1.3ft 3s 3s 16 18 mph 1012mb 73f 68f
4:50pm 1.3ft 3s 3s 18 20 mph 1011.4mb 73f 68f
3:50pm 1.6ft 3s 4s 16 18 mph 1011mb 73f 68f
2:50pm 1.6ft 3s 4s 13 16 mph 1010.7mb 72f 68f
1:50pm 1.3ft 8s 4s 13 16 mph 1010.2mb 72f 68f
12:50pm 1.3ft 7s 4s 13
mph
1009.7mb 72f 68f
11:50am 1ft 4s 3s 7
mph
1009.3mb 72f 69f
10:50am 1.3ft 6s 3s 11 13 mph 1009mb 72f 68f
9:50am 1.3ft 3s 3s 11 13 mph 1008.6mb 71f 68f
8:50am 1.3ft 4s 3s 13 18 mph 1008.1mb 71f 68f
7:50am 2ft 3s 3s 16 18 mph 1007.3mb 71f 68f
6:50am 2ft 4s 3s 16 20 mph 1006.3mb 71f 69f
5:50am 1.6ft 4s 4s 18 20 mph 1005.5mb 71f 69f